M I D A S
Marine Information and Data Acquisition System
Tripno 868 of the Zeeleeuw from 2005-03-22 08:14:00 to 2005-03-22 13:26:49
Back to CruiseResearch ActivitiesStationsMapUnderway DataData graphs

EquipmentUnitsComment
TimeDGPSUTC
LatitudeDGPSDM.mWGS84
LongitudeDGPSDM.mWGS84
HeadingGyrodeg 
SOGDGPSknotsSpeed over ground
COGDGPSdegCourse over ground
DepthEcho soundermeters200 kHz
Missing or incorrect values are displayed as -999
Navigation data collected by the RV Zeeleeuw from 2005-03-22 08:12:02 to 2005-03-22 13:35:43
                                                                                    Next 1000 lines
Time Latitude Longitude Heading SOG COG Depth
2005-03-22 08:12:11 51°13.595 2°56.097 116.5 1.1 293 7.9
2005-03-22 08:12:17 51°13.596 2°56.094 117 1.4 296 5.8
2005-03-22 08:12:22 51°13.597 2°56.09 117.3 1.9 298 8
2005-03-22 08:12:27 51°13.599 2°56.085 117.6 1.9 298 -999
2005-03-22 08:12:33 51°13.6 2°56.08 117.7 1.9 298 -999
2005-03-22 08:12:37 51°13.602 2°56.075 117.5 2.6 297 -999
2005-03-22 08:12:43 51°13.604 2°56.069 117 2.6 297 -999
2005-03-22 08:12:47 51°13.605 2°56.064 116.8 2.9 296 -999
2005-03-22 08:12:53 51°13.607 2°56.057 116.4 3 295 -999
2005-03-22 08:12:57 51°13.609 2°56.052 116.1 3.1 295 -999
2005-03-22 08:13:03 51°13.611 2°56.043 116.1 3.2 294 -999
2005-03-22 08:13:08 51°13.613 2°56.037 116.1 3.4 294 -999
2005-03-22 08:13:13 51°13.615 2°56.03 116.5 3.6 294 -999
2005-03-22 08:13:18 51°13.617 2°56.022 116.8 3.7 294 -999
2005-03-22 08:13:23 51°13.62 2°56.015 117.5 3.8 294 -999
2005-03-22 08:13:28 51°13.622 2°56.006 118.4 3.8 295 -999
2005-03-22 08:13:33 51°13.624 2°55.999 119.3 3.8 295 -999
2005-03-22 08:13:37 51°13.626 2°55.993 120.5 3.9 296 -999
2005-03-22 08:13:43 51°13.63 2°55.983 121.9 3.9 297 -999
2005-03-22 08:13:48 51°13.633 2°55.975 122.9 4.1 300 -999
2005-03-22 08:13:53 51°13.635 2°55.967 123.7 4.2 300 -999
2005-03-22 08:13:58 51°13.639 2°55.959 124.6 4.2 300 -999
2005-03-22 08:14:03 51°13.642 2°55.951 125.4 4.3 301 -999
2005-03-22 08:14:08 51°13.646 2°55.942 125.8 4.3 303 -999
2005-03-22 08:14:13 51°13.648 2°55.935 125.8 4.3 303 -999
2005-03-22 08:14:17 51°13.652 2°55.928 125.8 4.3 302 -999
2005-03-22 08:14:23 51°13.656 2°55.918 125.7 4.3 302 -999
2005-03-22 08:14:28 51°13.659 2°55.911 125.5 4.4 304 -999
2005-03-22 08:14:33 51°13.662 2°55.903 125.2 4.4 304 -999
2005-03-22 08:14:37 51°13.665 2°55.896 124.5 4.4 304 -999
2005-03-22 08:14:43 51°13.669 2°55.886 123.7 4.4 303 -999
2005-03-22 08:14:47 51°13.672 2°55.879 122.6 4.4 302 -999
2005-03-22 08:14:53 51°13.675 2°55.869 121.2 4.4 301 -999
2005-03-22 08:14:57 51°13.677 2°55.863 119.2 4.4 300 -999
2005-03-22 08:15:03 51°13.681 2°55.852 117.8 4.4 298 -999
2005-03-22 08:15:08 51°13.684 2°55.844 116.1 4.4 296 -999
2005-03-22 08:15:12 51°13.686 2°55.836 114.2 4.4 295 -999
2005-03-22 08:15:17 51°13.688 2°55.826 112.3 4.4 292 -999
2005-03-22 08:15:23 51°13.691 2°55.815 110.3 4.4 292 -999
2005-03-22 08:15:28 51°13.692 2°55.807 108.4 4.2 290 -999
2005-03-22 08:15:33 51°13.694 2°55.799 106.5 4.2 288 -999
2005-03-22 08:15:37 51°13.695 2°55.79 104.4 4.1 285 -999
2005-03-22 08:15:43 51°13.696 2°55.781 102.3 4.1 284 -999
2005-03-22 08:15:48 51°13.697 2°55.772 100.3 4 282 -999
2005-03-22 08:15:53 51°13.698 2°55.763 98.5 4 280 -999
2005-03-22 08:15:58 51°13.699 2°55.755 96.4 4 280 -999
2005-03-22 08:16:03 51°13.7 2°55.747 94.1 3.8 278 -999
2005-03-22 08:16:07 51°13.7 2°55.74 92 3.6 276 -999
2005-03-22 08:16:13 51°13.7 2°55.735 89.9 3.6 276 -999
2005-03-22 08:16:18 51°13.701 2°55.732 86.6 1.5 280 -999
2005-03-22 08:16:23 51°13.701 2°55.731 81.4 0.8 299 -999
2005-03-22 08:16:28 51°13.702 2°55.732 74.7 0.7 16 -999
2005-03-22 08:16:33 51°13.704 2°55.733 65 0.9 27 -999
2005-03-22 08:16:38 51°13.706 2°55.736 58.3 1.3 36 -999
2005-03-22 08:16:43 51°13.709 2°55.738 49.8 2 33 -999
2005-03-22 08:16:47 51°13.711 2°55.74 41.4 2 33 -999
2005-03-22 08:16:52 51°13.714 2°55.742 33.3 2 33 -999
2005-03-22 08:16:58 51°13.717 2°55.743 26.9 2 13 -999
2005-03-22 08:17:03 51°13.718 2°55.743 22.8 1.1 15 -999
2005-03-22 08:17:08 51°13.718 2°55.743 18.1 0.7 2 5.5
2005-03-22 08:17:11 51°13.718 2°55.742 14.2 0.7 2 -999
2005-03-22 08:17:17 51°13.717 2°55.742 11.8 0.3 212 5.4
2005-03-22 08:17:23 51°13.717 2°55.741 9.7 0.4 200 -999
2005-03-22 08:17:28 51°13.717 2°55.741 8.1 0.3 221 -999
2005-03-22 08:17:32 51°13.717 2°55.741 6.5 0.1 287 -999
2005-03-22 08:17:37 51°13.718 2°55.74 3.8 0.7 337 -999
2005-03-22 08:17:43 51°13.72 2°55.739 -999 1.2 346 -999
2005-03-22 08:17:48 51°13.723 2°55.737 354.1 1.2 346 -999
2005-03-22 08:17:51 51°13.725 2°55.736 347.1 2.3 341 12.2
2005-03-22 08:17:57 51°13.73 2°55.732 341.2 2.5 338 11.5
2005-03-22 08:18:02 51°13.734 2°55.728 336.7 3.1 331 11.8
2005-03-22 08:18:07 51°13.738 2°55.724 333.1 3.1 331 11.4
2005-03-22 08:18:12 51°13.743 2°55.718 330.6 4.1 327 10.7
2005-03-22 08:18:17 51°13.749 2°55.712 329.3 4.1 327 10.8
2005-03-22 08:18:22 51°13.754 2°55.706 328.8 4.1 327 10.6
2005-03-22 08:18:27 51°13.76 2°55.699 328.8 4.1 327 10.7
2005-03-22 08:18:32 51°13.766 2°55.693 328.7 5.6 326 11.1
2005-03-22 08:18:37 51°13.773 2°55.686 328.9 5.7 326 10.8
2005-03-22 08:18:42 51°13.781 2°55.677 329.5 6.1 327 10.9
2005-03-22 08:18:47 51°13.788 2°55.67 330.3 6.1 327 10.9
2005-03-22 08:18:51 51°13.795 2°55.664 331.2 6.5 328 10.9
2005-03-22 08:18:56 51°13.803 2°55.656 332.1 6.6 329 10.9
2005-03-22 08:19:02 51°13.813 2°55.647 332.9 6.6 329 10.9
2005-03-22 08:19:07 51°13.821 2°55.64 333.8 7 331 10.9
2005-03-22 08:19:12 51°13.83 2°55.633 335 7 331 11
2005-03-22 08:19:18 51°13.84 2°55.624 335.9 7.2 333 10.9
2005-03-22 08:19:23 51°13.85 2°55.617 336.8 7.3 334 11
2005-03-22 08:19:27 51°13.858 2°55.611 337.5 7.4 334 10.9
2005-03-22 08:19:32 51°13.866 2°55.605 337.8 7.5 335 10.9
2005-03-22 08:19:37 51°13.877 2°55.596 338.2 7.5 335 11.1
2005-03-22 08:19:42 51°13.886 2°55.59 338.2 7.7 334 11
2005-03-22 08:19:47 51°13.896 2°55.583 338.6 7.7 334 11.1
2005-03-22 08:19:52 51°13.906 2°55.575 339 7.8 336 10.9
2005-03-22 08:19:57 51°13.916 2°55.568 339.3 7.8 336 10.9
2005-03-22 08:20:03 51°13.927 2°55.56 339.6 7.9 336 11.1
2005-03-22 08:20:07 51°13.936 2°55.554 339.8 6.4 336 11.2
2005-03-22 08:20:11 51°13.944 2°55.548 339.8 6.4 336 11.2
2005-03-22 08:20:17 51°13.955 2°55.54 339.8 8 336 11.1
2005-03-22 08:20:22 51°13.965 2°55.533 339.7 8 336 11.1
2005-03-22 08:20:27 51°13.977 2°55.525 339.6 8 336 11.1
2005-03-22 08:20:32 51°13.987 2°55.517 339.5 8 336 11.1
2005-03-22 08:20:37 51°13.996 2°55.511 339.4 8 336 11.1
2005-03-22 08:20:41 51°14.004 2°55.505 339.2 8 336 11
2005-03-22 08:20:47 51°14.017 2°55.495 339.5 8 336 10.8
2005-03-22 08:20:52 51°14.026 2°55.489 340 8 336 10.6
2005-03-22 08:20:57 51°14.037 2°55.482 340.5 8 336 10.7
2005-03-22 08:21:03 51°14.049 2°55.473 340.4 8 336 10.5
2005-03-22 08:21:07 51°14.058 2°55.467 340 8 336 10.7
2005-03-22 08:21:13 51°14.069 2°55.458 339.4 8 335 10.6
2005-03-22 08:21:18 51°14.079 2°55.451 338.9 8 335 10.6
2005-03-22 08:21:22 51°14.088 2°55.444 338.4 8 335 10.7
2005-03-22 08:21:27 51°14.098 2°55.436 337.8 8.1 334 10.6
2005-03-22 08:21:32 51°14.108 2°55.427 337 8.1 333 10.6
2005-03-22 08:21:37 51°14.118 2°55.419 336.2 8.1 333 10.8
2005-03-22 08:21:42 51°14.127 2°55.41 335.7 8.1 333 10.8
2005-03-22 08:21:47 51°14.137 2°55.401 334.5 8.1 333 11.5
2005-03-22 08:21:52 51°14.145 2°55.392 333.6 8 329 11.2
2005-03-22 08:21:57 51°14.154 2°55.383 332 8 328 11.1
2005-03-22 08:22:03 51°14.165 2°55.371 330.3 8 326 11.6
2005-03-22 08:22:08 51°14.174 2°55.36 328.8 8 326 10.8
2005-03-22 08:22:11 51°14.18 2°55.353 327.3 8 322 10.8
2005-03-22 08:22:17 51°14.19 2°55.339 325.4 8 322 11.3
2005-03-22 08:22:22 51°14.198 2°55.328 323.7 8 322 11.1
2005-03-22 08:22:27 51°14.207 2°55.316 322.5 8.3 319 10.8
2005-03-22 08:22:31 51°14.214 2°55.306 321.4 8.4 318 10.8
2005-03-22 08:22:37 51°14.225 2°55.288 320.8 8.4 318 10.7
2005-03-22 08:22:42 51°14.234 2°55.274 320 8.7 316 10.7
2005-03-22 08:22:47 51°14.242 2°55.26 318.6 8.9 315 10.7
2005-03-22 08:22:52 51°14.25 2°55.248 318.5 8.9 314 10.9
2005-03-22 08:22:57 51°14.258 2°55.234 317.7 8.7 313 10.9
2005-03-22 08:23:02 51°14.267 2°55.219 316.7 8.6 313 10.8
2005-03-22 08:23:07 51°14.274 2°55.205 315.9 8.6 313 10.9
2005-03-22 08:23:12 51°14.28 2°55.192 315 8.2 311 10.9
2005-03-22 08:23:17 51°14.288 2°55.177 314.1 8.1 310 10.8
2005-03-22 08:23:22 51°14.295 2°55.164 313 8 308 10.8
2005-03-22 08:23:27 51°14.302 2°55.15 312.2 7.9 309 10.8
2005-03-22 08:23:31 51°14.307 2°55.139 312.1 7.9 309 11
2005-03-22 08:23:36 51°14.314 2°55.126 312.9 7.9 309 11.1
2005-03-22 08:23:41 51°14.32 2°55.114 313 7.8 309 11.2
2005-03-22 08:23:47 51°14.329 2°55.096 312.6 7.8 309 11.3
2005-03-22 08:23:52 51°14.336 2°55.083 312.4 7.8 309 11.3
2005-03-22 08:23:57 51°14.343 2°55.068 312.7 7.8 309 11.2
2005-03-22 08:24:03 51°14.353 2°55.05 312.8 7.8 309 11.4
2005-03-22 08:24:07 51°14.361 2°55.036 312.7 8.9 310 11.3
2005-03-22 08:24:12 51°14.369 2°55.023 313.8 9.2 313 11.2
2005-03-22 08:24:17 51°14.38 2°55.006 316.4 9.6 316 11.2
2005-03-22 08:24:23 51°14.391 2°54.99 317.5 9.9 317 11.4
2005-03-22 08:24:27 51°14.401 2°54.976 317.7 9.9 317 11.6
2005-03-22 08:24:31 51°14.409 2°54.963 317.9 9.9 317 11.6
2005-03-22 08:24:37 51°14.422 2°54.945 318.3 9.9 317 11.7
2005-03-22 08:24:41 51°14.432 2°54.93 318.3 11.1 316 11.8
2005-03-22 08:24:48 51°14.445 2°54.906 317 11.1 316 11.7
2005-03-22 08:24:51 51°14.452 2°54.893 313.8 11.4 311 11.8
2005-03-22 08:24:56 51°14.462 2°54.872 310.8 11.4 309 11.6
2005-03-22 08:25:03 51°14.473 2°54.844 308.1 11.4 305 11.6
2005-03-22 08:25:07 51°14.48 2°54.824 303.8 11.5 302 11.5
2005-03-22 08:25:13 51°14.487 2°54.799 300.2 11.5 298 11.5
2005-03-22 08:25:17 51°14.491 2°54.78 296.3 11.5 298 11.5
2005-03-22 08:25:22 51°14.496 2°54.753 292.5 11.5 290 11.7
2005-03-22 08:25:27 51°14.5 2°54.727 289.4 11.7 285 11.7
2005-03-22 08:25:33 51°14.504 2°54.699 285.7 11.7 285 11.6
2005-03-22 08:25:37 51°14.506 2°54.674 282.7 12 281 11.7
2005-03-22 08:25:42 51°14.508 2°54.648 280.8 12.3 278 11.7
2005-03-22 08:25:47 51°14.509 2°54.62 278.4 12.4 276 11.8
2005-03-22 08:25:53 51°14.51 2°54.589 276.8 12.4 276 11.7
2005-03-22 08:25:57 51°14.511 2°54.564 274.8 12.6 273 11.6
2005-03-22 08:26:03 51°14.511 2°54.534 273.4 12.6 272 11.6
2005-03-22 08:26:07 51°14.51 2°54.508 271.7 12.7 269 11.6
2005-03-22 08:26:11 51°14.509 2°54.486 270 12.7 269 11.7
2005-03-22 08:26:17 51°14.506 2°54.452 267.8 12.7 266 11.6
2005-03-22 08:26:23 51°14.504 2°54.422 265.5 12.7 262 11.7
2005-03-22 08:26:27 51°14.501 2°54.397 263.7 12.7 261 11.7
2005-03-22 08:26:32 51°14.497 2°54.372 261.5 12.7 261 11.7
2005-03-22 08:26:38 51°14.492 2°54.339 259.5 12.8 258 11.6
2005-03-22 08:26:42 51°14.489 2°54.317 257.7 12.7 256 11.7
2005-03-22 08:26:47 51°14.484 2°54.29 256.6 12.7 254 11.7
2005-03-22 08:26:53 51°14.477 2°54.258 255.4 12.7 253 11.6
2005-03-22 08:26:57 51°14.472 2°54.237 253.6 12.7 252 11.5
2005-03-22 08:27:02 51°14.465 2°54.208 252.2 12.7 252 11.1
2005-03-22 08:27:07 51°14.459 2°54.182 250.9 12.7 249 10.8
2005-03-22 08:27:12 51°14.453 2°54.156 250.4 12.6 249 10.8
2005-03-22 08:27:17 51°14.446 2°54.129 249.6 12.6 249 10.9
2005-03-22 08:27:22 51°14.439 2°54.104 249.2 12.6 249 10.9
2005-03-22 08:27:27 51°14.432 2°54.078 248.4 12.7 247 10.9
2005-03-22 08:27:33 51°14.422 2°54.051 247.2 12.6 244 10.9
2005-03-22 08:27:37 51°14.415 2°54.032 243.8 12.7 241 10.8
2005-03-22 08:27:42 51°14.405 2°54.006 241.6 12.7 241 10.8
2005-03-22 08:27:47 51°14.395 2°53.983 240.1 12.6 238 10.8
2005-03-22 08:27:52 51°14.386 2°53.959 238.4 12.6 236 10.8
2005-03-22 08:27:57 51°14.376 2°53.935 238.3 12.6 236 10.8
2005-03-22 08:28:02 51°14.367 2°53.912 238.5 12.6 236 10.8
2005-03-22 08:28:07 51°14.358 2°53.888 239 12.6 236 10.8
2005-03-22 08:28:13 51°14.347 2°53.862 239.5 12.6 236 10.8
2005-03-22 08:28:17 51°14.34 2°53.843 238.9 12.7 237 10.9
2005-03-22 08:28:22 51°14.329 2°53.817 239.5 12.7 238 10.8
2005-03-22 08:28:27 51°14.32 2°53.793 239.1 12.7 238 10.8
2005-03-22 08:28:32 51°14.31 2°53.769 239.5 12.8 239 10.7
2005-03-22 08:28:37 51°14.301 2°53.745 239.5 12.8 239 10.8
2005-03-22 08:28:43 51°14.291 2°53.719 239 12.7 238 10.8
2005-03-22 08:28:47 51°14.282 2°53.698 239.6 12.7 238 10.8
2005-03-22 08:28:52 51°14.274 2°53.675 239 12.8 237 10.8
2005-03-22 08:28:57 51°14.265 2°53.652 239.7 12.7 238 10.8
2005-03-22 08:29:03 51°14.254 2°53.623 239.6 12.7 238 10.8
2005-03-22 08:29:07 51°14.246 2°53.601 239.9 12.7 238 10.8
2005-03-22 08:29:12 51°14.238 2°53.579 240 12.8 239 10.8
2005-03-22 08:29:17 51°14.227 2°53.553 240 12.7 238 10.9
2005-03-22 08:29:22 51°14.218 2°53.529 239.8 12.7 238 10.8
2005-03-22 08:29:27 51°14.209 2°53.505 240.2 12.7 239 10.9
2005-03-22 08:29:33 51°14.199 2°53.479 240.2 12.7 239 10.8
2005-03-22 08:29:37 51°14.192 2°53.459 239.6 12.7 239 10.8
2005-03-22 08:29:42 51°14.181 2°53.433 240.2 12.7 238 10.9
2005-03-22 08:29:47 51°14.172 2°53.409 239.9 12.8 239 11
2005-03-22 08:29:52 51°14.164 2°53.387 240.4 12.8 239 11
2005-03-22 08:29:57 51°14.155 2°53.363 240.7 12.8 239 11
2005-03-22 08:30:03 51°14.144 2°53.334 240.8 12.8 239 11
2005-03-22 08:30:07 51°14.137 2°53.312 240.7 12.8 240 11
2005-03-22 08:30:13 51°14.127 2°53.285 240.9 12.8 240 11.1
2005-03-22 08:30:17 51°14.119 2°53.263 240.9 12.7 239 11.2
2005-03-22 08:30:22 51°14.109 2°53.239 240.9 12.7 239 11.1
2005-03-22 08:30:27 51°14.1 2°53.215 240.4 12.8 240 11.2
2005-03-22 08:30:33 51°14.09 2°53.189 240.3 12.7 238 11.2
2005-03-22 08:30:37 51°14.083 2°53.169 239.5 12.7 238 11.1
2005-03-22 08:30:43 51°14.072 2°53.141 239.7 12.7 238 11.1
2005-03-22 08:30:47 51°14.063 2°53.119 240.2 12.7 239 11.2
2005-03-22 08:30:51 51°14.056 2°53.1 239.7 12.7 239 11.2
2005-03-22 08:30:57 51°14.046 2°53.073 240.3 12.8 239 11.2
2005-03-22 08:31:02 51°14.036 2°53.047 240.2 12.8 239 11.3
2005-03-22 08:31:07 51°14.027 2°53.023 240.2 12.8 238 11.3
2005-03-22 08:31:13 51°14.017 2°52.996 239.9 12.8 238 11.3
2005-03-22 08:31:17 51°14.008 2°52.974 240.1 12.8 239 11.4
2005-03-22 08:31:22 51°13.999 2°52.95 239.9 12.8 239 11.4
2005-03-22 08:31:27 51°13.99 2°52.926 240.1 12.8 239 11.4
2005-03-22 08:31:32 51°13.982 2°52.904 240.8 12.8 239 11.5
2005-03-22 08:31:37 51°13.973 2°52.88 240.7 12.8 239 11.5
2005-03-22 08:31:42 51°13.962 2°52.853 240.7 12.8 238 11.5
2005-03-22 08:31:47 51°13.953 2°52.829 240.8 12.8 240 11.6
2005-03-22 08:31:51 51°13.946 2°52.809 240.9 12.8 240 11.5
2005-03-22 08:31:56 51°13.937 2°52.785 240.4 12.8 240 11.6
2005-03-22 08:32:01 51°13.928 2°52.763 240.4 12.8 238 11.6
2005-03-22 08:32:07 51°13.917 2°52.732 240.4 12.8 238 11.7
2005-03-22 08:32:13 51°13.907 2°52.705 240.6 12.8 238 11.7
2005-03-22 08:32:17 51°13.9 2°52.685 240.3 12.8 238 11.6
2005-03-22 08:32:23 51°13.889 2°52.656 241.3 12.7 238 11.7
2005-03-22 08:32:27 51°13.881 2°52.634 240.8 12.8 239 11.7
2005-03-22 08:32:33 51°13.871 2°52.607 240.4 12.8 239 11.6
2005-03-22 08:32:38 51°13.861 2°52.583 241 12.8 239 11.7
2005-03-22 08:32:43 51°13.852 2°52.559 240.8 12.8 239 11.7
2005-03-22 08:32:47 51°13.844 2°52.537 240.6 12.8 239 11.8
2005-03-22 08:32:51 51°13.837 2°52.517 240.8 12.8 239 11.7
2005-03-22 08:32:56 51°13.828 2°52.493 240.8 12.8 239 11.7
2005-03-22 08:33:02 51°13.817 2°52.464 240.9 12.8 239 11.7
2005-03-22 08:33:07 51°13.808 2°52.439 240.9 12.7 239 11.8
2005-03-22 08:33:11 51°13.801 2°52.42 240.7 12.7 239 11.8
2005-03-22 08:33:17 51°13.791 2°52.393 240.8 12.8 239 11.8
2005-03-22 08:33:22 51°13.782 2°52.369 240.7 12.8 239 11.8
2005-03-22 08:33:27 51°13.772 2°52.342 240.4 12.8 239 11.8
2005-03-22 08:33:33 51°13.762 2°52.315 240.9 12.8 239 11.9
2005-03-22 08:33:37 51°13.753 2°52.293 241.2 12.8 240 11.8
2005-03-22 08:33:41 51°13.747 2°52.277 240.9 12.8 238 11.8
2005-03-22 08:33:47 51°13.735 2°52.245 240.7 12.8 240 11.9
2005-03-22 08:33:52 51°13.727 2°52.223 241.1 12.8 239 11.8
2005-03-22 08:33:57 51°13.717 2°52.196 240.9 12.8 239 11.9
2005-03-22 08:34:02 51°13.708 2°52.172 240.9 12.8 239 11.8
2005-03-22 08:34:07 51°13.699 2°52.147 240.9 12.9 240 11.9
2005-03-22 08:34:12 51°13.691 2°52.125 240.9 12.8 240 12
2005-03-22 08:34:17 51°13.681 2°52.098 241.1 12.8 240 11.9
2005-03-22 08:34:22 51°13.672 2°52.074 240.9 12.8 240 11.9
2005-03-22 08:34:27 51°13.663 2°52.05 241.6 12.7 240 11.9
2005-03-22 08:34:33 51°13.653 2°52.023 241.1 12.7 240 11.9
2005-03-22 08:34:37 51°13.646 2°52.004 240.9 12.8 240 11.9
2005-03-22 08:34:42 51°13.635 2°51.977 241 12.8 239 11.9
2005-03-22 08:34:47 51°13.627 2°51.952 240.5 12.9 241 11.9
2005-03-22 08:34:52 51°13.618 2°51.931 241.8 12.7 238 11.9
2005-03-22 08:34:57 51°13.609 2°51.903 240.9 12.8 239 11.9
2005-03-22 08:35:02 51°13.6 2°51.879 241.6 12.8 240 12
2005-03-22 08:35:07 51°13.591 2°51.855 241.6 12.8 240 11.9
2005-03-22 08:35:12 51°13.583 2°51.833 241 12.8 240 11.9
2005-03-22 08:35:18 51°13.572 2°51.804 241 12.8 240 11.8
2005-03-22 08:35:23 51°13.563 2°51.78 240.9 12.8 241 12
2005-03-22 08:35:27 51°13.554 2°51.758 241.5 12.7 238 12
2005-03-22 08:35:31 51°13.548 2°51.738 240.9 12.7 238 12
2005-03-22 08:35:38 51°13.536 2°51.707 241.2 12.7 238 12
2005-03-22 08:35:43 51°13.526 2°51.682 241.2 12.7 238 11.9
2005-03-22 08:35:47 51°13.519 2°51.663 240.9 12.8 239 12.1
2005-03-22 08:35:51 51°13.512 2°51.643 241.3 12.8 240 12
2005-03-22 08:35:57 51°13.5 2°51.611 241 12.8 238 12.1
2005-03-22 08:36:03 51°13.49 2°51.586 241.2 12.8 240 12.1
2005-03-22 08:36:07 51°13.482 2°51.563 240.4 12.8 240 12.1
2005-03-22 08:36:13 51°13.472 2°51.537 241.1 12.7 240 12.2
2005-03-22 08:36:18 51°13.463 2°51.512 241.2 12.7 240 12.2
2005-03-22 08:36:22 51°13.455 2°51.491 240.9 12.7 240 12.3
2005-03-22 08:36:27 51°13.446 2°51.466 241.5 12.7 239 12.2
2005-03-22 08:36:32 51°13.437 2°51.442 241 12.7 241 12.2
2005-03-22 08:36:37 51°13.428 2°51.417 240.9 12.7 241 12.2
2005-03-22 08:36:42 51°13.419 2°51.393 241.4 12.7 241 12.3
2005-03-22 08:36:47 51°13.41 2°51.369 241.5 12.7 241 12.2
2005-03-22 08:36:53 51°13.4 2°51.343 240.9 12.7 241 12.3
2005-03-22 08:36:57 51°13.393 2°51.323 241.2 12.7 240 12.2
2005-03-22 08:37:01 51°13.385 2°51.301 240.8 12.8 240 12.3
2005-03-22 08:37:07 51°13.374 2°51.272 241.4 12.8 239 12.3
2005-03-22 08:37:13 51°13.365 2°51.245 241.4 12.8 240 12.3
2005-03-22 08:37:18 51°13.356 2°51.22 242 12.8 240 12.3
2005-03-22 08:37:22 51°13.348 2°51.198 242.2 12.8 240 12.3
2005-03-22 08:37:27 51°13.339 2°51.174 242 12.7 241 12.3
2005-03-22 08:37:32 51°13.33 2°51.15 241.9 12.7 241 12.3
2005-03-22 08:37:37 51°13.322 2°51.129 241.2 12.7 241 12.4
2005-03-22 08:37:42 51°13.312 2°51.102 240.4 12.7 241 12.4
2005-03-22 08:37:47 51°13.303 2°51.078 240.5 12.7 241 12.4
2005-03-22 08:37:52 51°13.295 2°51.056 241.2 12.7 239 12.4
2005-03-22 08:37:57 51°13.285 2°51.029 240.8 12.7 240 12.4
2005-03-22 08:38:03 51°13.275 2°51.003 241.6 12.6 239 12.3
2005-03-22 08:38:07 51°13.267 2°50.981 241.1 12.7 239 12.4
2005-03-22 08:38:12 51°13.258 2°50.957 241.3 12.7 239 12.4
2005-03-22 08:38:17 51°13.249 2°50.932 241.1 12.7 239 12.4
2005-03-22 08:38:23 51°13.239 2°50.906 241.2 12.7 240 12.4
2005-03-22 08:38:27 51°13.231 2°50.884 241.2 12.7 239 12.4
2005-03-22 08:38:33 51°13.221 2°50.858 241.1 12.7 240 12.4
2005-03-22 08:38:37 51°13.213 2°50.835 241.1 12.7 239 12.4
2005-03-22 08:38:43 51°13.203 2°50.809 241.4 12.7 240 12.5
2005-03-22 08:38:47 51°13.195 2°50.787 241.2 12.7 240 12.4
2005-03-22 08:38:52 51°13.186 2°50.763 241 12.7 239 12.4
2005-03-22 08:38:57 51°13.178 2°50.741 241.3 12.7 239 12.5
2005-03-22 08:39:01 51°13.171 2°50.722 241.6 12.7 239 12.5
2005-03-22 08:39:07 51°13.159 2°50.69 240.9 12.7 239 12.5
2005-03-22 08:39:13 51°13.149 2°50.664 241 12.7 239 12.5
2005-03-22 08:39:17 51°13.142 2°50.645 241 12.7 239 12.6
2005-03-22 08:39:23 51°13.131 2°50.616 240.9 12.7 239 12.6
2005-03-22 08:39:27 51°13.123 2°50.594 240.7 12.7 239 12.5
2005-03-22 08:39:33 51°13.113 2°50.568 241.1 12.7 239 12.5
2005-03-22 08:39:38 51°13.104 2°50.543 241 12.7 239 12.6
2005-03-22 08:39:43 51°13.095 2°50.519 241.5 12.7 239 12.4
2005-03-22 08:39:47 51°13.088 2°50.497 241.8 12.7 239 12.6
2005-03-22 08:39:52 51°13.079 2°50.476 241.6 12.7 239 12.6
2005-03-22 08:39:57 51°13.071 2°50.451 240.9 12.7 239 12.6
2005-03-22 08:40:02 51°13.061 2°50.425 241.6 12.7 239 12.6
2005-03-22 08:40:07 51°13.052 2°50.4 241.6 12.7 239 12.6
2005-03-22 08:40:12 51°13.044 2°50.378 241.6 12.7 240 12.6
2005-03-22 08:40:17 51°13.035 2°50.354 241.6 12.7 239 12.7
2005-03-22 08:40:23 51°13.024 2°50.326 241.3 12.7 239 12.7
2005-03-22 08:40:28 51°13.015 2°50.301 240.9 12.7 239 12.7
2005-03-22 08:40:31 51°13.009 2°50.285 240.9 12.7 239 12.7
2005-03-22 08:40:36 51°13 2°50.26 240.8 12.7 239 12.8
2005-03-22 08:40:43 51°12.988 2°50.229 241.2 12.6 240 12.7
2005-03-22 08:40:47 51°12.98 2°50.207 240.8 12.7 238 12.7
2005-03-22 08:40:51 51°12.974 2°50.191 240.9 12.6 240 12.7
2005-03-22 08:40:57 51°12.963 2°50.162 240.4 12.6 240 12.7
2005-03-22 08:41:02 51°12.953 2°50.135 240.9 12.6 240 12.8
2005-03-22 08:41:07 51°12.944 2°50.111 241.1 12.6 240 12.8
2005-03-22 08:41:13 51°12.935 2°50.084 241.4 12.6 240 12.8
2005-03-22 08:41:17 51°12.926 2°50.062 241.7 12.7 240 12.8
2005-03-22 08:41:23 51°12.916 2°50.036 241.2 12.7 240 12.8
2005-03-22 08:41:27 51°12.908 2°50.014 241 12.7 240 12.8
2005-03-22 08:41:33 51°12.898 2°49.988 240.9 12.7 240 12.8
2005-03-22 08:41:37 51°12.891 2°49.969 240.9 12.6 238 12.8
2005-03-22 08:41:43 51°12.88 2°49.94 240.9 12.7 239 12.8
2005-03-22 08:41:47 51°12.872 2°49.918 241.4 12.7 239 12.7
2005-03-22 08:41:52 51°12.864 2°49.896 240.9 12.7 240 12.7
2005-03-22 08:41:58 51°12.853 2°49.867 241.3 12.7 240 12.9
2005-03-22 08:42:02 51°12.845 2°49.845 241.6 12.7 240 12.9
2005-03-22 08:42:07 51°12.836 2°49.821 241 12.7 240 12.9
2005-03-22 08:42:13 51°12.826 2°49.795 241.2 12.7 240 12.9
2005-03-22 08:42:17 51°12.819 2°49.776 241.3 12.7 240 12.9
2005-03-22 08:42:23 51°12.808 2°49.747 241.5 12.7 240 12.9
2005-03-22 08:42:27 51°12.8 2°49.725 241.2 12.7 240 13
2005-03-22 08:42:33 51°12.791 2°49.699 241 -999 -999 12.9
2005-03-22 08:42:37 51°12.784 2°49.679 241.2 12.6 240 13
2005-03-22 08:42:42 51°12.774 2°49.653 241.8 12.6 240 13
2005-03-22 08:42:47 51°12.765 2°49.629 241.6 12.6 240 12.9
2005-03-22 08:42:52 51°12.756 2°49.605 241.2 12.6 240 12.9
2005-03-22 08:42:57 51°12.747 2°49.581 241.2 12.6 240 12.9
2005-03-22 08:43:02 51°12.74 2°49.56 241 12.5 239 13
2005-03-22 08:43:08 51°12.729 2°49.531 240.8 12.5 239 13
2005-03-22 08:43:11 51°12.723 2°49.514 241.2 12.5 240 13
2005-03-22 08:43:18 51°12.711 2°49.483 241.2 12.5 239 13
2005-03-22 08:43:22 51°12.703 2°49.462 240.9 12.5 240 13
2005-03-22 08:43:27 51°12.694 2°49.438 240.7 12.6 238 13
2005-03-22 08:43:33 51°12.684 2°49.412 240.6 12.6 238 13
2005-03-22 08:43:37 51°12.676 2°49.39 241.2 12.6 238 13
2005-03-22 08:43:43 51°12.666 2°49.364 240.7 12.5 238 13
2005-03-22 08:43:47 51°12.658 2°49.343 240.9 12.6 240 13
2005-03-22 08:43:53 51°12.649 2°49.316 241.2 12.6 240 13.1
2005-03-22 08:43:58 51°12.64 2°49.292 241.3 12.6 240 13.1
2005-03-22 08:44:03 51°12.631 2°49.268 241.3 12.6 240 13.1
2005-03-22 08:44:07 51°12.624 2°49.249 241.6 12.6 239 13.1
2005-03-22 08:44:11 51°12.617 2°49.23 241.6 12.6 240 13
2005-03-22 08:44:17 51°12.606 2°49.201 241.6 12.6 240 13.1
2005-03-22 08:44:23 51°12.596 2°49.172 241.8 12.6 240 13.1
2005-03-22 08:44:27 51°12.589 2°49.153 241.9 12.6 240 13.1
2005-03-22 08:44:31 51°12.582 2°49.133 241.2 12.7 241 13.1
2005-03-22 08:44:37 51°12.571 2°49.105 242.2 12.6 242 13.2
2005-03-22 08:44:43 51°12.561 2°49.075 241.2 12.6 240 13.2
2005-03-22 08:44:47 51°12.553 2°49.054 241.7 12.6 241 13.1
2005-03-22 08:44:52 51°12.544 2°49.03 241.6 12.6 241 13.2
2005-03-22 08:44:57 51°12.536 2°49.008 241.2 12.6 241 13.2
2005-03-22 08:45:02 51°12.526 2°48.982 241 12.6 239 13.2
2005-03-22 08:45:07 51°12.517 2°48.958 240.9 12.6 239 13.2
2005-03-22 08:45:13 51°12.507 2°48.932 240.8 12.5 238 13.3
2005-03-22 08:45:18 51°12.498 2°48.908 240.8 12.6 239 13.1
2005-03-22 08:45:22 51°12.491 2°48.889 240.8 12.5 239 13.2
2005-03-22 08:45:27 51°12.482 2°48.866 241 12.6 239 13.2
2005-03-22 08:45:33 51°12.471 2°48.837 241 12.6 239 13.2
2005-03-22 08:45:37 51°12.463 2°48.815 241.4 12.5 239 13.2
2005-03-22 08:45:43 51°12.453 2°48.789 241.1 12.5 239 13.2
2005-03-22 08:45:48 51°12.445 2°48.764 240.9 12.5 239 13.2
2005-03-22 08:45:53 51°12.436 2°48.741 241.6 12.5 239 13.3
2005-03-22 08:45:57 51°12.428 2°48.719 241.4 12.6 239 13.2
2005-03-22 08:46:02 51°12.419 2°48.695 241.2 12.6 240 13.3
2005-03-22 08:46:07 51°12.41 2°48.671 241.6 12.6 240 13.3
2005-03-22 08:46:13 51°12.4 2°48.645 241.6 12.6 239 13.3
2005-03-22 08:46:17 51°12.393 2°48.626 240.5 12.6 239 13.2
2005-03-22 08:46:22 51°12.383 2°48.6 240.6 12.6 240 13.3
2005-03-22 08:46:27 51°12.374 2°48.576 241.2 12.6 240 13.3
2005-03-22 08:46:32 51°12.366 2°48.554 241.3 12.6 240 13.3
2005-03-22 08:46:38 51°12.356 2°48.525 241.8 12.6 240 13.3
2005-03-22 08:46:43 51°12.347 2°48.501 242.2 12.5 240 13.3
2005-03-22 08:46:47 51°12.339 2°48.479 241.6 12.5 240 13.3
2005-03-22 08:46:53 51°12.33 2°48.453 241 12.5 240 13.3
2005-03-22 08:46:57 51°12.323 2°48.434 241.6 12.5 240 13.3
2005-03-22 08:47:03 51°12.312 2°48.405 241.6 12.6 241 13.4
2005-03-22 08:47:07 51°12.304 2°48.383 242.4 12.6 241 13.4
2005-03-22 08:47:13 51°12.295 2°48.357 241.8 12.6 241 13.3
2005-03-22 08:47:17 51°12.288 2°48.338 241.9 12.6 241 13.3
2005-03-22 08:47:23 51°12.277 2°48.309 241.8 12.6 240 13.4
2005-03-22 08:47:27 51°12.269 2°48.287 241.6 12.6 240 13.3
2005-03-22 08:47:31 51°12.262 2°48.268 241.7 12.6 240 13.4
2005-03-22 08:47:36 51°12.254 2°48.246 241.9 12.6 240 13.2
2005-03-22 08:47:42 51°12.243 2°48.215 241.9 12.6 240 13.3
2005-03-22 08:47:48 51°12.233 2°48.189 241.8 12.5 240 13.3
2005-03-22 08:47:53 51°12.224 2°48.165 241.4 12.5 240 13.3
2005-03-22 08:47:57 51°12.216 2°48.143 241.2 12.6 240 13.4
2005-03-22 08:48:02 51°12.207 2°48.12 241.6 12.5 240 13.4
2005-03-22 08:48:07 51°12.199 2°48.096 241.3 12.5 239 13.3
2005-03-22 08:48:13 51°12.189 2°48.07 241.3 12.5 239 13.4
2005-03-22 08:48:17 51°12.182 2°48.051 240.9 12.5 239 13.4
2005-03-22 08:48:22 51°12.172 2°48.025 241.1 12.5 239 13.4
2005-03-22 08:48:27 51°12.163 2°48.002 240.8 12.5 239 13.4
2005-03-22 08:48:33 51°12.153 2°47.975 240.8 12.6 239 13.4
2005-03-22 08:48:37 51°12.145 2°47.953 241.3 12.6 239 13.4
2005-03-22 08:48:43 51°12.135 2°47.928 241.9 12.5 239 13.4
2005-03-22 08:48:47 51°12.128 2°47.909 241.4 12.5 239 13.4
2005-03-22 08:48:51 51°12.12 2°47.887 241.2 12.5 239 13.3
2005-03-22 08:48:57 51°12.11 2°47.861 241.5 12.5 239 13.3
2005-03-22 08:49:02 51°12.101 2°47.835 241.2 12.5 239 13.2
2005-03-22 08:49:07 51°12.092 2°47.811 241.4 12.5 239 13.3
2005-03-22 08:49:12 51°12.084 2°47.79 241.6 12.5 239 13.2
2005-03-22 08:49:17 51°12.075 2°47.766 241.7 12.5 239 13.3
2005-03-22 08:49:23 51°12.064 2°47.738 241.4 12.5 239 13.2
2005-03-22 08:49:27 51°12.056 2°47.716 241.6 12.5 239 13.3
2005-03-22 08:49:31 51°12.049 2°47.697 241.3 12.5 239 13.3
2005-03-22 08:49:37 51°12.039 2°47.671 241 12.5 239 13.2
2005-03-22 08:49:43 51°12.028 2°47.643 241 12.5 239 13.3
2005-03-22 08:49:47 51°12.02 2°47.621 241.7 12.5 239 13.3
2005-03-22 08:49:51 51°12.013 2°47.602 241.2 12.6 239 13.2
2005-03-22 08:49:57 51°12.003 2°47.576 242 12.6 240 13.2
2005-03-22 08:50:02 51°11.994 2°47.55 241.8 12.6 240 13.2
2005-03-22 08:50:07 51°11.985 2°47.526 241.7 12.6 240 13.2
2005-03-22 08:50:13 51°11.975 2°47.5 241.7 12.6 240 13.2
2005-03-22 08:50:17 51°11.967 2°47.478 241.4 12.4 238 13.2
2005-03-22 08:50:23 51°11.957 2°47.453 241.2 12.5 239 13.2
2005-03-22 08:50:27 51°11.949 2°47.432 240.9 12.4 238 13.1
2005-03-22 08:50:32 51°11.941 2°47.41 240.7 12.4 238 13.2
2005-03-22 08:50:38 51°11.931 2°47.382 241.6 12.4 238 13.2
2005-03-22 08:50:42 51°11.923 2°47.36 240.9 12.4 238 13.2
2005-03-22 08:50:47 51°11.918 2°47.338 243.1 12.5 246 13.1
2005-03-22 08:50:51 51°11.912 2°47.315 247.1 12.4 247 13.2
2005-03-22 08:50:57 51°11.905 2°47.283 250.2 12.4 251 13.1
2005-03-22 08:51:01 51°11.901 2°47.266 252.6 12.4 251 13.2
2005-03-22 08:51:07 51°11.895 2°47.231 253.5 12.4 251 13.2
2005-03-22 08:51:13 51°11.889 2°47.202 254.8 12.5 254 13.3
2005-03-22 08:51:17 51°11.886 2°47.181 255.7 12.5 254 13.2
2005-03-22 08:51:22 51°11.879 2°47.153 255.4 12.4 252 13.3
2005-03-22 08:51:27 51°11.873 2°47.127 253.3 12.4 252 13.3
2005-03-22 08:51:32 51°11.867 2°47.104 252.5 12.5 250 13.3
2005-03-22 08:51:37 51°11.861 2°47.078 251.2 12.5 250 13.3
2005-03-22 08:51:43 51°11.853 2°47.048 250.4 12.5 250 13.4
2005-03-22 08:51:47 51°11.847 2°47.025 250 12.5 248 13.3
2005-03-22 08:51:52 51°11.841 2°47.002 249.9 12.4 247 13.3
2005-03-22 08:51:57 51°11.834 2°46.973 248.9 12.5 246 13.3
2005-03-22 08:52:03 51°11.826 2°46.946 249.4 12.5 246 13.4
2005-03-22 08:52:07 51°11.82 2°46.923 248.5 12.5 246 13.4
2005-03-22 08:52:13 51°11.813 2°46.895 248.9 12.5 248 13.4
2005-03-22 08:52:18 51°11.806 2°46.87 249.4 12.5 248 13.5
2005-03-22 08:52:23 51°11.799 2°46.844 248.9 12.5 248 13.5
2005-03-22 08:52:27 51°11.793 2°46.824 249.4 12.5 248 13.4
2005-03-22 08:52:33 51°11.786 2°46.794 248.7 12.5 248 13.5
2005-03-22 08:52:38 51°11.779 2°46.768 249.1 12.5 247 13.5
2005-03-22 08:52:42 51°11.773 2°46.748 248.7 12.5 247 13.5
2005-03-22 08:52:47 51°11.766 2°46.722 248.3 12.5 246 13.7
2005-03-22 08:52:53 51°11.758 2°46.692 248.7 12.5 247 13.6
2005-03-22 08:52:57 51°11.751 2°46.669 248.5 12.5 247 13.6
2005-03-22 08:53:03 51°11.744 2°46.642 248.2 12.6 246 13.6
2005-03-22 08:53:07 51°11.738 2°46.619 248.8 12.5 248 13.6
2005-03-22 08:53:13 51°11.73 2°46.591 249.2 12.5 248 13.7
2005-03-22 08:53:17 51°11.724 2°46.568 248.9 12.5 247 13.7
2005-03-22 08:53:22 51°11.718 2°46.543 249 12.5 247 13.7
2005-03-22 08:53:27 51°11.711 2°46.517 249 12.5 247 13.7
2005-03-22 08:53:32 51°11.705 2°46.494 248.7 12.5 247 13.7
2005-03-22 08:53:37 51°11.698 2°46.469 248.6 12.5 247 13.7
2005-03-22 08:53:43 51°11.69 2°46.439 248.9 12.5 246 13.7
2005-03-22 08:53:47 51°11.684 2°46.416 248.7 12.6 247 13.7
2005-03-22 08:53:52 51°11.677 2°46.393 249 12.5 248 13.7
2005-03-22 08:53:57 51°11.67 2°46.364 248.9 12.5 246 13.7
2005-03-22 08:54:03 51°11.663 2°46.337 248.9 12.5 246 13.7
2005-03-22 08:54:07 51°11.657 2°46.314 248.9 12.5 246 13.7
2005-03-22 08:54:13 51°11.649 2°46.286 249.5 12.5 246 13.7
2005-03-22 08:54:17 51°11.643 2°46.262 248.8 12.5 246 13.8
2005-03-22 08:54:20 51°11.639 2°46.248 248.4 12.6 247 13.8
2005-03-22 08:54:28 51°11.629 2°46.209 249 12.5 247 13.8
2005-03-22 08:54:32 51°11.624 2°46.189 248.7 12.5 247 13.8
2005-03-22 08:54:38 51°11.615 2°46.159 248.9 12.5 247 13.7
2005-03-22 08:54:43 51°11.608 2°46.134 248.4 12.5 247 13.7
2005-03-22 08:54:48 51°11.601 2°46.108 248.2 12.4 246 13.8
2005-03-22 08:54:53 51°11.594 2°46.084 248.2 12.4 246 13.7
2005-03-22 08:54:57 51°11.589 2°46.063 247.6 12.4 246 13.7
2005-03-22 08:55:03 51°11.58 2°46.033 248 12.4 246 13.7
2005-03-22 08:55:07 51°11.575 2°46.01 248.3 12.5 246 13.7
2005-03-22 08:55:13 51°11.568 2°45.981 249.8 12.5 249 13.7
2005-03-22 08:55:17 51°11.562 2°45.958 250.4 12.5 248 13.6
2005-03-22 08:55:23 51°11.556 2°45.93 250.7 12.5 248 13.6
2005-03-22 08:55:27 51°11.55 2°45.906 251.4 12.5 248 13.6
2005-03-22 08:55:31 51°11.545 2°45.886 251.8 12.5 249 13.7
2005-03-22 08:55:38 51°11.538 2°45.852 251.4 12.5 249 13.7
2005-03-22 08:55:43 51°11.532 2°45.826 251.5 12.5 249 13.7
2005-03-22 08:55:47 51°11.527 2°45.805 252 12.5 249 13.7
2005-03-22 08:55:52 51°11.521 2°45.779 251.8 12.6 251 13.7
2005-03-22 08:55:58 51°11.514 2°45.747 252.3 12.5 251 13.7
2005-03-22 08:56:02 51°11.51 2°45.726 251.9 12.6 251 13.7
2005-03-22 08:56:07 51°11.504 2°45.7 252.5 12.5 250 13.8
2005-03-22 08:56:13 51°11.497 2°45.669 252.1 12.6 250 13.7
2005-03-22 08:56:17 51°11.491 2°45.645 252.1 12.5 251 13.8
2005-03-22 08:56:23 51°11.485 2°45.617 252.2 12.5 250 13.7
2005-03-22 08:56:28 51°11.479 2°45.591 252.1 12.5 250 13.8
2005-03-22 08:56:31 51°11.475 2°45.573 251.6 12.5 249 13.7
2005-03-22 08:56:37 51°11.467 2°45.542 251.1 12.5 250 13.8
2005-03-22 08:56:43 51°11.46 2°45.511 251.1 12.5 249 13.7
2005-03-22 08:56:47 51°11.455 2°45.49 251.1 12.5 249 13.8
2005-03-22 08:56:52 51°11.449 2°45.465 251.5 12.4 250 13.8
2005-03-22 08:56:57 51°11.443 2°45.438 251.5 12.4 250 13.7
2005-03-22 08:57:02 51°11.438 2°45.416 251.6 12.4 250 13.8
2005-03-22 08:57:07 51°11.431 2°45.387 251.5 12.4 249 13.8
2005-03-22 08:57:11 51°11.426 2°45.367 251 12.4 249 13.7
2005-03-22 08:57:17 51°11.42 2°45.339 250.8 12.5 249 13.8
2005-03-22 08:57:22 51°11.413 2°45.31 251.4 12.5 249 13.8
2005-03-22 08:57:27 51°11.407 2°45.284 251.7 12.4 250 13.8
2005-03-22 08:57:33 51°11.4 2°45.256 251.4 12.4 250 13.8
2005-03-22 08:57:38 51°11.394 2°45.23 251.1 12.4 250 13.7
2005-03-22 08:57:41 51°11.391 2°45.215 251.2 12.5 250 13.8
2005-03-22 08:57:47 51°11.383 2°45.181 251.7 12.5 250 13.8
2005-03-22 08:57:52 51°11.377 2°45.155 251.7 12.4 250 13.8
2005-03-22 08:57:57 51°11.371 2°45.129 251.3 12.4 249 13.8
2005-03-22 08:58:03 51°11.364 2°45.101 251.5 12.4 250 13.8
2005-03-22 08:58:07 51°11.359 2°45.078 251.2 12.4 249 13.8
2005-03-22 08:58:12 51°11.353 2°45.053 251.2 12.4 250 13.8
2005-03-22 08:58:17 51°11.347 2°45.026 250.8 12.4 249 13.8
2005-03-22 08:58:20 51°11.343 2°45.011 250.9 12.5 249 13.8
2005-03-22 08:58:27 51°11.335 2°44.978 251.1 12.5 249 13.9
2005-03-22 08:58:32 51°11.329 2°44.952 251.1 12.5 249 13.8
2005-03-22 08:58:37 51°11.322 2°44.923 251.1 12.5 249 13.8
2005-03-22 08:58:43 51°11.316 2°44.895 251.3 12.5 249 13.8
2005-03-22 08:58:47 51°11.31 2°44.872 251.4 12.5 250 13.8
2005-03-22 08:58:53 51°11.303 2°44.844 251.1 12.5 250 13.8
2005-03-22 08:58:57 51°11.298 2°44.823 251.2 12.5 250 13.8
2005-03-22 08:59:02 51°11.292 2°44.797 251.1 12.5 249 13.8
2005-03-22 08:59:07 51°11.286 2°44.769 251.2 12.5 249 13.8
2005-03-22 08:59:13 51°11.279 2°44.741 251.1 12.5 249 13.8
2005-03-22 08:59:17 51°11.274 2°44.72 251 12.5 249 13.8
2005-03-22 08:59:23 51°11.267 2°44.689 251.4 12.5 249 13.8
2005-03-22 08:59:27 51°11.261 2°44.666 251.6 12.5 249 13.8
2005-03-22 08:59:32 51°11.256 2°44.642 251.2 12.5 249 13.8
2005-03-22 08:59:36 51°11.251 2°44.622 251.5 12.5 249 13.8
2005-03-22 08:59:43 51°11.243 2°44.586 251.6 12.5 249 13.8
2005-03-22 08:59:47 51°11.237 2°44.562 251.4 12.5 250 13.8
2005-03-22 08:59:52 51°11.231 2°44.537 251.4 12.4 249 13.8
2005-03-22 08:59:57 51°11.226 2°44.514 251.5 12.4 250 13.7
2005-03-22 09:00:02 51°11.219 2°44.485 251.5 12.4 250 13.7
2005-03-22 09:00:07 51°11.213 2°44.46 251.4 12.4 249 13.7
2005-03-22 09:00:12 51°11.207 2°44.434 250.8 12.5 249 13.7
2005-03-22 09:00:17 51°11.202 2°44.411 251.1 12.5 249 13.7
2005-03-22 09:00:23 51°11.195 2°44.38 251.2 12.5 250 13.7
2005-03-22 09:00:27 51°11.189 2°44.357 251.3 12.5 250 13.7
2005-03-22 09:00:32 51°11.183 2°44.331 251.3 12.5 249 13.7
2005-03-22 09:00:37 51°11.178 2°44.308 251.1 12.5 249 13.7
2005-03-22 09:00:43 51°11.17 2°44.277 251.5 12.5 250 13.8
2005-03-22 09:00:48 51°11.164 2°44.25 251.5 12.5 250 13.7
2005-03-22 09:00:51 51°11.16 2°44.233 251.5 12.5 251 13.7
2005-03-22 09:00:57 51°11.154 2°44.204 251.8 12.5 251 13.7
2005-03-22 09:01:02 51°11.147 2°44.176 251.5 12.5 250 13.8
2005-03-22 09:01:07 51°11.142 2°44.153 251.8 12.5 250 13.7
2005-03-22 09:01:13 51°11.134 2°44.122 251.8 12.4 249 13.8
2005-03-22 09:01:17 51°11.13 2°44.101 251.1 12.4 249 13.8
2005-03-22 09:01:23 51°11.122 2°44.07 251.2 12.4 249 13.8
2005-03-22 09:01:27 51°11.118 2°44.049 251.4 12.4 249 13.7
2005-03-22 09:01:33 51°11.11 2°44.019 251.4 12.5 250 13.8
2005-03-22 09:01:37 51°11.106 2°43.998 251.4 12.4 249 13.8
2005-03-22 09:01:42 51°11.099 2°43.972 251.1 12.4 250 13.8
2005-03-22 09:01:47 51°11.093 2°43.944 250.7 12.5 250 13.8
2005-03-22 09:01:51 51°11.089 2°43.923 252.9 12.5 253 13.8
2005-03-22 09:01:57 51°11.083 2°43.891 253.7 12.4 252 13.7
2005-03-22 09:02:03 51°11.078 2°43.862 254.6 12.5 254 13.8
2005-03-22 09:02:07 51°11.074 2°43.838 255.4 12.5 254 13.8
2005-03-22 09:02:13 51°11.069 2°43.809 255.5 12.5 254 13.7
2005-03-22 09:02:17 51°11.064 2°43.784 256.4 12.5 255 13.9
2005-03-22 09:02:22 51°11.061 2°43.758 256.3 12.5 255 13.8
2005-03-22 09:02:27 51°11.056 2°43.731 257.3 12.5 256 13.8
2005-03-22 09:02:32 51°11.052 2°43.705 256.8 12.5 254 13.9
2005-03-22 09:02:37 51°11.047 2°43.681 256.7 12.5 254 13.8
2005-03-22 09:02:43 51°11.042 2°43.649 256.9 12.4 254 13.9
2005-03-22 09:02:47 51°11.038 2°43.625 256.4 12.5 255 13.9
2005-03-22 09:02:51 51°11.034 2°43.604 256.2 12.5 255 13.9
2005-03-22 09:02:57 51°11.029 2°43.575 256.2 12.5 255 13.9
2005-03-22 09:03:02 51°11.024 2°43.546 256.8 12.4 255 13.8
2005-03-22 09:03:07 51°11.021 2°43.521 256 12.4 254 13.9
2005-03-22 09:03:13 51°11.015 2°43.49 256.9 12.4 256 13.9
2005-03-22 09:03:17 51°11.011 2°43.468 256.5 12.4 256 13.9
2005-03-22 09:03:23 51°11.006 2°43.437 256.1 12.4 256 13.9
2005-03-22 09:03:27 51°11.003 2°43.415 256.6 12.4 256 13.9
2005-03-22 09:03:33 51°10.998 2°43.383 257.6 12.4 257 14.1
2005-03-22 09:03:37 51°10.995 2°43.362 258.5 12.4 257 13.9
2005-03-22 09:03:42 51°10.992 2°43.335 259 12.4 257 14
2005-03-22 09:03:47 51°10.988 2°43.305 259.5 12.4 258 14.1
2005-03-22 09:03:51 51°10.985 2°43.284 259.7 12.4 259 13.9
2005-03-22 09:03:57 51°10.981 2°43.251 259.8 12.4 258 14
2005-03-22 09:04:03 51°10.977 2°43.222 260 12.5 259 14.1
2005-03-22 09:04:07 51°10.974 2°43.198 260.2 12.5 259 14
2005-03-22 09:04:13 51°10.971 2°43.168 260.5 12.5 259 14.1
2005-03-22 09:04:17 51°10.967 2°43.144 259.8 12.5 259 14.1
2005-03-22 09:04:21 51°10.964 2°43.122 259.9 12.4 258 14
2005-03-22 09:04:27 51°10.961 2°43.093 259.4 12.4 258 14
2005-03-22 09:04:32 51°10.957 2°43.063 259.8 12.5 258 14
2005-03-22 09:04:37 51°10.953 2°43.036 259.4 12.5 258 14.2
2005-03-22 09:04:43 51°10.949 2°43.007 259.1 12.5 258 14.1
2005-03-22 09:04:47 51°10.946 2°42.983 259.7 12.4 259 14.2
2005-03-22 09:04:52 51°10.943 2°42.958 259.6 12.5 258 14.2
2005-03-22 09:04:57 51°10.939 2°42.928 259.1 12.5 258 14.2
2005-03-22 09:05:02 51°10.935 2°42.902 259.5 12.5 258 14.2
2005-03-22 09:05:07 51°10.932 2°42.875 259.8 12.5 259 14.1
2005-03-22 09:05:13 51°10.928 2°42.845 260.1 12.5 259 14.2
2005-03-22 09:05:17 51°10.925 2°42.824 259.8 12.5 258 14.1
2005-03-22 09:05:23 51°10.921 2°42.791 259.6 12.5 258 14.2
2005-03-22 09:05:27 51°10.918 2°42.77 259.3 12.4 257 14.3
2005-03-22 09:05:32 51°10.913 2°42.741 258 12.4 256 14.2
2005-03-22 09:05:37 51°10.908 2°42.714 256.6 12.4 256 14.1
2005-03-22 09:05:42 51°10.903 2°42.689 255.6 12.4 254 14.3
2005-03-22 09:05:47 51°10.898 2°42.662 254.7 12.4 253 14.3
2005-03-22 09:05:52 51°10.892 2°42.636 254.2 12.4 253 14.2
2005-03-22 09:05:57 51°10.887 2°42.613 253.3 12.4 253 14.2
2005-03-22 09:06:03 51°10.881 2°42.582 252.7 12.4 251 14.2
2005-03-22 09:06:07 51°10.876 2°42.561 252.5 12.4 252 14.2
2005-03-22 09:06:12 51°10.87 2°42.533 253.1 12.4 251 14.2
2005-03-22 09:06:17 51°10.865 2°42.51 252.8 12.4 251 14.2
2005-03-22 09:06:23 51°10.858 2°42.479 252.9 12.4 251 14.2
2005-03-22 09:06:27 51°10.853 2°42.455 252.6 12.4 251 14.2
2005-03-22 09:06:32 51°10.848 2°42.429 252.9 12.4 251 14.2
2005-03-22 09:06:37 51°10.842 2°42.406 253.1 12.4 251 14.2
2005-03-22 09:06:42 51°10.836 2°42.378 252.9 12.4 251 14.2
2005-03-22 09:06:47 51°10.832 2°42.354 253.1 12.4 251 14.2
2005-03-22 09:06:52 51°10.825 2°42.326 253.3 12.4 251 14.2
2005-03-22 09:06:57 51°10.82 2°42.303 252.5 12.4 251 14.2
2005-03-22 09:07:03 51°10.813 2°42.272 252.2 12.4 251 14.2
2005-03-22 09:07:07 51°10.807 2°42.249 251.3 12.4 251 14.2
2005-03-22 09:07:12 51°10.801 2°42.224 251.3 12.4 251 14.2
2005-03-22 09:07:17 51°10.795 2°42.201 250.4 12.4 249 14.2
2005-03-22 09:07:22 51°10.789 2°42.173 250.5 12.4 249 14.2
2005-03-22 09:07:27 51°10.783 2°42.147 250.9 12.4 250 14.2
2005-03-22 09:07:32 51°10.777 2°42.124 251.3 12.4 250 14.2
2005-03-22 09:07:37 51°10.771 2°42.099 251.4 12.4 250 14.2
2005-03-22 09:07:42 51°10.765 2°42.07 251.3 12.4 250 14.2
2005-03-22 09:07:47 51°10.759 2°42.045 251.1 12.4 250 14.2
2005-03-22 09:07:53 51°10.752 2°42.016 251.2 12.4 250 14.2
2005-03-22 09:07:57 51°10.747 2°41.996 251.1 12.4 250 14.2
2005-03-22 09:08:02 51°10.741 2°41.97 251.1 12.4 250 14.2
2005-03-22 09:08:07 51°10.734 2°41.945 251.4 12.4 249 14.2
2005-03-22 09:08:11 51°10.728 2°41.923 249.5 12.3 246 14.2
2005-03-22 09:08:17 51°10.719 2°41.896 247.9 12.3 245 14.2
2005-03-22 09:08:22 51°10.711 2°41.869 246.7 12.4 244 14.2
2005-03-22 09:08:27 51°10.703 2°41.845 245.8 12.3 242 14.2
2005-03-22 09:08:33 51°10.695 2°41.819 245.1 12.3 242 14.2
2005-03-22 09:08:37 51°10.687 2°41.797 244.7 12.3 242 14.2
2005-03-22 09:08:42 51°10.679 2°41.774 244.1 12.2 241 14.1
2005-03-22 09:08:47 51°10.671 2°41.75 243.4 12.3 240 14.1
2005-03-22 09:08:52 51°10.662 2°41.727 243.1 12.3 242 14.2
2005-03-22 09:08:57 51°10.654 2°41.703 243.5 12.3 242 14.1
2005-03-22 09:09:02 51°10.646 2°41.68 243.1 12.3 241 14
2005-03-22 09:09:07 51°10.637 2°41.656 243.5 12.3 241 14.2
2005-03-22 09:09:12 51°10.63 2°41.635 243.3 12.3 241 14.1
2005-03-22 09:09:17 51°10.621 2°41.608 243.3 12.3 242 14.1
2005-03-22 09:09:22 51°10.613 2°41.585 244.1 12.2 241 14.1
2005-03-22 09:09:27 51°10.605 2°41.561 243.5 12.2 241 14.1
2005-03-22 09:09:33 51°10.596 2°41.535 243.8 12.3 240 14.1
2005-03-22 09:09:37 51°10.589 2°41.516 243.8 12.3 241 14
2005-03-22 09:09:42 51°10.58 2°41.49 243.7 12.3 241 14
2005-03-22 09:09:48 51°10.571 2°41.463 243.8 12.3 241 14
2005-03-22 09:09:52 51°10.565 2°41.444 244.2 12.3 241 14
2005-03-22 09:09:56 51°10.559 2°41.425 245 12.3 245 14
2005-03-22 09:10:03 51°10.549 2°41.391 246.7 12.3 245 14
2005-03-22 09:10:07 51°10.543 2°41.368 247.6 12.3 245 14
2005-03-22 09:10:12 51°10.537 2°41.346 248.5 12.3 245 14
2005-03-22 09:10:18 51°10.529 2°41.316 249.1 12.3 245 14
2005-03-22 09:10:22 51°10.523 2°41.293 249.6 12.3 245 14
2005-03-22 09:10:27 51°10.517 2°41.268 249.7 -999 -999 14
2005-03-22 09:10:32 51°10.511 2°41.245 250.4 -999 -999 14
2005-03-22 09:10:36 51°10.507 2°41.225 250.3 -999 -999 14
2005-03-22 09:10:41 51°10.5 2°41.197 251.2 12.2 249 14
2005-03-22 09:10:47 51°10.493 2°41.167 251.9 12.2 249 14
2005-03-22 09:10:52 51°10.487 2°41.144 251.8 12.2 249 14
2005-03-22 09:10:57 51°10.481 2°41.116 251.8 12.2 249 14.1
2005-03-22 09:11:03 51°10.474 2°41.089 252.2 12.2 249 14
2005-03-22 09:11:07 51°10.469 2°41.066 251.7 12.3 250 14.1
2005-03-22 09:11:13 51°10.463 2°41.038 252.5 12.2 250 14.1
2005-03-22 09:11:17 51°10.458 2°41.017 252.8 12.3 250 14.1
2005-03-22 09:11:23 51°10.452 2°40.987 252.9 12.3 250 14.1
2005-03-22 09:11:27 51°10.446 2°40.964 253.1 12.2 250 14.1
2005-03-22 09:11:33 51°10.44 2°40.936 252.7 12.2 250 14.1
2005-03-22 09:11:38 51°10.434 2°40.911 252.5 12.2 250 14.2
2005-03-22 09:11:42 51°10.429 2°40.888 252.1 12.3 250 14.1
2005-03-22 09:11:47 51°10.424 2°40.865 252 12.3 250 14.1
2005-03-22 09:11:53 51°10.416 2°40.835 252.8 12.2 251 14.2
2005-03-22 09:11:57 51°10.412 2°40.814 252.5 12.3 249 14.1
2005-03-22 09:12:02 51°10.406 2°40.787 253.1 12.3 251 14.1
2005-03-22 09:12:07 51°10.401 2°40.763 252.7 12.3 251 14
2005-03-22 09:12:12 51°10.394 2°40.738 252.5 12.3 251 14.1
2005-03-22 09:12:17 51°10.389 2°40.713 252.4 12.2 250 14.1
2005-03-22 09:12:22 51°10.382 2°40.685 251.9 12.2 250 14.1
2005-03-22 09:12:27 51°10.376 2°40.66 252.5 12.2 251 14.1
2005-03-22 09:12:32 51°10.37 2°40.634 252.5 12.3 249 14.1
2005-03-22 09:12:37 51°10.365 2°40.611 252.2 12.3 249 14.2
2005-03-22 09:12:42 51°10.359 2°40.584 252.7 12.3 249 14.2
2005-03-22 09:12:47 51°10.353 2°40.558 252.5 12.3 249 14.2
2005-03-22 09:12:52 51°10.347 2°40.533 252.7 12.2 250 14.3
2005-03-22 09:12:57 51°10.341 2°40.507 252.1 12.2 250 14.3
2005-03-22 09:13:02 51°10.335 2°40.483 252.4 12.2 250 14.2
2005-03-22 09:13:07 51°10.329 2°40.457 252.2 12.2 250 14.3
2005-03-22 09:13:12 51°10.323 2°40.432 252.2 12.2 250 14.2
2005-03-22 09:13:17 51°10.317 2°40.406 251.9 12.3 250 14.2
2005-03-22 09:13:20 51°10.314 2°40.391 252.5 12.2 249 14.3
2005-03-22 09:13:27 51°10.306 2°40.358 252.2 12.3 249 14.2
2005-03-22 09:13:32 51°10.3 2°40.332 252 12.3 249 14.3
2005-03-22 09:13:37 51°10.294 2°40.304 252.6 12.3 249 14.2
2005-03-22 09:13:43 51°10.288 2°40.276 252.5 12.3 250 14.4
2005-03-22 09:13:47 51°10.283 2°40.253 253 12.3 251 14.3
2005-03-22 09:13:51 51°10.279 2°40.232 254.1 12.3 252 14.4
2005-03-22 09:13:56 51°10.274 2°40.209 254.4 12.3 252 14.4
2005-03-22 09:14:03 51°10.268 2°40.173 255.6 12.3 252 14.4
2005-03-22 09:14:07 51°10.263 2°40.149 255.8 12.3 253 14.4
2005-03-22 09:14:12 51°10.258 2°40.123 255.5 12.3 254 14.5
2005-03-22 09:14:17 51°10.254 2°40.1 255.4 12.3 252 14.5
2005-03-22 09:14:23 51°10.248 2°40.068 255.4 12.3 255 14.6
2005-03-22 09:14:27 51°10.243 2°40.045 255.9 12.2 252 14.5
2005-03-22 09:14:31 51°10.24 2°40.024 255.4 12.3 252 14.6
2005-03-22 09:14:35 51°10.236 2°40.003 255.7 12.3 252 14.6
2005-03-22 09:14:43 51°10.229 2°39.964 256.1 12.3 252 14.6
2005-03-22 09:14:47 51°10.224 2°39.941 255.9 12.3 252 14.7
2005-03-22 09:14:51 51°10.221 2°39.92 256.1 12.2 254 14.7
2005-03-22 09:14:57 51°10.215 2°39.888 255.9 12.2 253 14.7
2005-03-22 09:15:02 51°10.209 2°39.863 255.5 12.3 253 14.8
2005-03-22 09:15:07 51°10.204 2°39.837 255.3 12.3 253 14.8
2005-03-22 09:15:12 51°10.199 2°39.812 254.9 12.3 253 14.9
2005-03-22 09:15:17 51°10.195 2°39.788 255.1 12.3 254 14.8
2005-03-22 09:15:22 51°10.19 2°39.759 255.5 12.3 254 14.9
2005-03-22 09:15:27 51°10.185 2°39.733 256 12.3 254 15
2005-03-22 09:15:33 51°10.18 2°39.705 256.1 12.3 254 14.9
2005-03-22 09:15:37 51°10.176 2°39.684 256 12.2 255 15
2005-03-22 09:15:42 51°10.171 2°39.656 255.4 12.2 253 15
2005-03-22 09:15:47 51°10.166 2°39.63 255.7 12.2 253 15
2005-03-22 09:15:52 51°10.162 2°39.606 256 12.2 254 15
2005-03-22 09:15:56 51°10.158 2°39.586 256.2 12.2 254 15.1
2005-03-22 09:16:03 51°10.151 2°39.55 256.1 12.2 254 15.1
2005-03-22 09:16:07 51°10.147 2°39.526 256.1 12.2 254 15.2
2005-03-22 09:16:12 51°10.143 2°39.502 255.9 12.2 254 15.2
2005-03-22 09:16:18 51°10.137 2°39.471 255.8 12.2 254 15.3
2005-03-22 09:16:23 51°10.132 2°39.446 255.6 12.2 254 15.3
2005-03-22 09:16:27 51°10.127 2°39.422 255.4 -999 -999 15.4
2005-03-22 09:16:33 51°10.122 2°39.394 255.2 -999 -999 15.4
2005-03-22 09:16:37 51°10.118 2°39.373 255.3 12.2 253 15.5
2005-03-22 09:16:43 51°10.112 2°39.342 255.3 12.3 253 15.5
2005-03-22 09:16:48 51°10.107 2°39.316 255.4 12.3 253 15.6
2005-03-22 09:16:52 51°10.103 2°39.295 255.4 12.3 253 15.6
2005-03-22 09:16:56 51°10.099 2°39.275 255.5 12.3 253 15.6
2005-03-22 09:17:03 51°10.092 2°39.239 255 12.3 253 15.7
2005-03-22 09:17:07 51°10.087 2°39.215 255 12.3 253 15.7
2005-03-22 09:17:12 51°10.083 2°39.192 254.4 12.3 253 15.7
2005-03-22 09:17:17 51°10.077 2°39.166 255 12.3 253 15.9
2005-03-22 09:17:22 51°10.072 2°39.138 255.3 12.3 253 15.9
2005-03-22 09:17:27 51°10.067 2°39.112 255.2 12.3 253 15.9
2005-03-22 09:17:32 51°10.062 2°39.086 255.3 12.3 253 15.9
2005-03-22 09:17:37 51°10.057 2°39.06 255.3 12.3 253 16
2005-03-22 09:17:42 51°10.052 2°39.034 255.4 12.2 252 15.9
2005-03-22 09:17:47 51°10.047 2°39.008 255.1 12.2 252 16
2005-03-22 09:17:53 51°10.042 2°38.98 255.3 12.2 252 16.1
2005-03-22 09:17:56 51°10.039 2°38.962 255.1 12.3 253 16.1
2005-03-22 09:18:02 51°10.033 2°38.931 255.5 12.3 254 16.2
2005-03-22 09:18:07 51°10.028 2°38.907 255.5 12.3 253 16.2
2005-03-22 09:18:12 51°10.023 2°38.879 255.4 12.3 253 16.2
2005-03-22 09:18:17 51°10.018 2°38.856 255.3 12.3 253 16.3
2005-03-22 09:18:21 51°10.015 2°38.835 255 12.3 254 16.3
2005-03-22 09:18:28 51°10.008 2°38.798 255.2 12.3 253 16.3
2005-03-22 09:18:32 51°10.004 2°38.777 255.4 12.4 254 16.3
2005-03-22 09:18:37 51°9.999 2°38.751 255.6 12.4 254 16.4
2005-03-22 09:18:41 51°9.995 2°38.73 255.4 12.3 253 16.5
2005-03-22 09:18:48 51°9.988 2°38.694 255.4 12.3 253 16.5
2005-03-22 09:18:53 51°9.983 2°38.669 255.3 12.2 253 16.6
2005-03-22 09:18:57 51°9.979 2°38.648 255.2 12.2 253 16.6
2005-03-22 09:19:02 51°9.974 2°38.62 255 12.3 253 16.6
2005-03-22 09:19:07 51°9.969 2°38.594 255.2 12.3 253 16.7
2005-03-22 09:19:12 51°9.965 2°38.57 255.6 12.3 254 16.7
2005-03-22 09:19:17 51°9.96 2°38.544 256 12.2 254 16.7
2005-03-22 09:19:21 51°9.955 2°38.521 255.4 12.3 252 16.8
2005-03-22 09:19:28 51°9.949 2°38.487 255.4 12.3 252 16.8
2005-03-22 09:19:32 51°9.945 2°38.465 255.4 12.2 253 16.9
2005-03-22 09:19:37 51°9.94 2°38.438 255.2 12.3 254 17
2005-03-22 09:19:42 51°9.935 2°38.413 255.4 12.3 254 17
2005-03-22 09:19:47 51°9.931 2°38.386 255.5 12.2 255 17
2005-03-22 09:19:53 51°9.925 2°38.358 255.6 12.2 255 17.1
2005-03-22 09:19:57 51°9.921 2°38.334 255.4 12.2 254 17.1
2005-03-22 09:20:02 51°9.916 2°38.308 255.3 12.3 253 17.1
2005-03-22 09:20:07 51°9.912 2°38.283 255.3 12.3 253 17.2
2005-03-22 09:20:13 51°9.906 2°38.254 255.4 12.2 254 17.2
2005-03-22 09:20:17 51°9.903 2°38.233 254.8 12.2 254 17.3
2005-03-22 09:20:21 51°9.898 2°38.21 255.2 12.2 254 17.3
2005-03-22 09:20:27 51°9.893 2°38.179 255.2 12.2 253 17.4
2005-03-22 09:20:32 51°9.888 2°38.154 255.4 12.2 254 17.4
2005-03-22 09:20:37 51°9.884 2°38.13 255.1 12.2 253 17.5
2005-03-22 09:20:41 51°9.879 2°38.106 255.4 12.2 253 17.6
2005-03-22 09:20:47 51°9.874 2°38.078 255.6 12.2 255 17.6
2005-03-22 09:20:52 51°9.869 2°38.05 255.9 12.2 254 17.7
2005-03-22 09:20:57 51°9.865 2°38.027 255.9 12.2 254 17.7
2005-03-22 09:21:02 51°9.859 2°37.999 255.3 12.1 254 17.7
2005-03-22 09:21:07 51°9.855 2°37.973 254.8 12.1 254 17.8
2005-03-22 09:21:12 51°9.85 2°37.947 254.8 12.1 253 18
2005-03-22 09:21:17 51°9.846 2°37.924 254.9 12.1 253 18
2005-03-22 09:21:23 51°9.84 2°37.893 255.3 12.1 254 18.1
2005-03-22 09:21:27 51°9.836 2°37.87 255.1 12.1 254 18
2005-03-22 09:21:33 51°9.831 2°37.842 255.2 12.1 254 18
2005-03-22 09:21:37 51°9.826 2°37.818 255 12.2 253 18
2005-03-22 09:21:43 51°9.821 2°37.791 254.9 12.1 253 17.9
2005-03-22 09:21:47 51°9.817 2°37.767 254.7 12.1 253 17.9
2005-03-22 09:21:52 51°9.812 2°37.742 255.1 12.1 252 18.2
2005-03-22 09:21:57 51°9.807 2°37.716 254.7 12.1 252 17.7
2005-03-22 09:22:02 51°9.803 2°37.693 255.1 12.2 254 18.3
2005-03-22 09:22:07 51°9.798 2°37.667 255.4 12.2 254 18.4
2005-03-22 09:22:13 51°9.793 2°37.636 255.4 12.2 254 18.4
2005-03-22 09:22:17 51°9.789 2°37.612 255.6 12.2 254 18.3
2005-03-22 09:22:22 51°9.784 2°37.586 255.4 12.2 254 18.3
2005-03-22 09:22:27 51°9.78 2°37.56 255.7 12.2 255 18.3
2005-03-22 09:22:32 51°9.776 2°37.537 256.1 12.2 255 18.3
2005-03-22 09:22:38 51°9.77 2°37.506 256 12.2 254 18.3
2005-03-22 09:22:42 51°9.766 2°37.483 255.9 12.2 254 18.3
2005-03-22 09:22:47 51°9.762 2°37.458 255.8 12.2 254 18.3
2005-03-22 09:22:52 51°9.757 2°37.431 255.7 12.1 255 18.3
2005-03-22 09:22:57 51°9.752 2°37.405 254.9 12.1 255 18.3
2005-03-22 09:23:02 51°9.748 2°37.38 255.1 12.1 254 18.3
2005-03-22 09:23:07 51°9.743 2°37.354 255.3 12.1 254 18.3
2005-03-22 09:23:13 51°9.738 2°37.326 255.3 12.1 254 18.2
2005-03-22 09:23:17 51°9.734 2°37.305 255.1 12.1 254 18.2
2005-03-22 09:23:22 51°9.729 2°37.277 255 12.1 254 18.2
2005-03-22 09:23:27 51°9.725 2°37.252 255.1 12.1 254 18.2
2005-03-22 09:23:32 51°9.72 2°37.228 255 12.1 254 18.2
2005-03-22 09:23:37 51°9.716 2°37.203 254.8 12.1 254 18.3
2005-03-22 09:23:42 51°9.711 2°37.174 254.7 12.2 255 18.3
2005-03-22 09:23:47 51°9.706 2°37.151 255.4 12.2 255 18.2
2005-03-22 09:23:53 51°9.701 2°37.12 255 12.2 254 18.2
2005-03-22 09:23:57 51°9.698 2°37.1 255.6 12.2 254 18.3
2005-03-22 09:24:02 51°9.693 2°37.071 255.8 12.1 255 18.2
2005-03-22 09:24:07 51°9.688 2°37.045 255.6 12.1 255 18.2
2005-03-22 09:24:13 51°9.683 2°37.017 255.6 12.1 254 18.2
2005-03-22 09:24:17 51°9.678 2°36.994 255.4 12.1 254 18.2
2005-03-22 09:24:22 51°9.674 2°36.969 255.2 12.1 254 18.2
2005-03-22 09:24:27 51°9.67 2°36.943 255.7 12 254 18.4
2005-03-22 09:24:33 51°9.665 2°36.915 255.6 12 254 18.3
2005-03-22 09:24:37 51°9.661 2°36.892 255.2 12 254 18.1
2005-03-22 09:24:43 51°9.655 2°36.864 255.2 12 254 18
2005-03-22 09:24:47 51°9.651 2°36.841 254.8 12 254 18.3
2005-03-22 09:24:52 51°9.647 2°36.816 255.4 12 255 18.1
2005-03-22 09:24:57 51°9.643 2°36.793 255.6 12 255 18
2005-03-22 09:25:03 51°9.638 2°36.762 255.4 12 255 17.9
2005-03-22 09:25:07 51°9.633 2°36.739 256 12 254 17.8
2005-03-22 09:25:12 51°9.63 2°36.716 255.6 12 255 18.1
2005-03-22 09:25:16 51°9.625 2°36.694 255.3 12 254 18.2
2005-03-22 09:25:22 51°9.62 2°36.663 255.2 12 254 18
2005-03-22 09:25:27 51°9.615 2°36.638 255.4 12 254 18.5
2005-03-22 09:25:32 51°9.61 2°36.613 255.1 12 254 18.5
2005-03-22 09:25:37 51°9.606 2°36.59 254.7 12 253 18.3
2005-03-22 09:25:42 51°9.602 2°36.563 254.8 12 253 18.2
2005-03-22 09:25:47 51°9.596 2°36.536 255.2 11.9 253 18.7
2005-03-22 09:25:53 51°9.591 2°36.508 254.7 11.9 253 18.6
2005-03-22 09:25:57 51°9.587 2°36.488 255.3 12 253 18.3
2005-03-22 09:26:03 51°9.582 2°36.457 254.7 12 255 18.3
2005-03-22 09:26:07 51°9.578 2°36.434 255.2 12 253 18.4
2005-03-22 09:26:12 51°9.574 2°36.411 255.4 12 253 18.7
2005-03-22 09:26:18 51°9.568 2°36.38 255.5 12 254 18.6
2005-03-22 09:26:22 51°9.564 2°36.358 255.4 12 254 18.3
2005-03-22 09:26:28 51°9.559 2°36.329 255.4 12 254 18.8
2005-03-22 09:26:33 51°9.554 2°36.304 255.6 12 255 18.3
2005-03-22 09:26:37 51°9.551 2°36.284 255.4 12 254 18.3
2005-03-22 09:26:43 51°9.546 2°36.254 255.2 12 255 18.5
2005-03-22 09:26:47 51°9.541 2°36.231 255.6 12 255 18.8
2005-03-22 09:26:53 51°9.537 2°36.203 255.9 12 255 18.6
2005-03-22 09:26:57 51°9.533 2°36.182 256.2 12 255 18.7
2005-03-22 09:27:02 51°9.528 2°36.154 256.2 12 255 18.6
2005-03-22 09:27:07 51°9.524 2°36.129 255.6 12 254 18.6
2005-03-22 09:27:12 51°9.52 2°36.105 255.6 12 254 18.7
2005-03-22 09:27:18 51°9.514 2°36.072 255.5 12 254 18.9
2005-03-22 09:27:22 51°9.51 2°36.052 255 12 254 18.7
2005-03-22 09:27:27 51°9.506 2°36.027 255.4 12 255 18.8
2005-03-22 09:27:31 51°9.502 2°36.006 255.7 12 255 19
2005-03-22 09:27:38 51°9.496 2°35.973 255.5 12 255 18.7
2005-03-22 09:27:43 51°9.492 2°35.947 255.4 12 255 19.1
2005-03-22 09:27:47 51°9.488 2°35.923 255.1 12 254 18.4
2005-03-22 09:27:52 51°9.484 2°35.9 254.8 12 253 18.9
2005-03-22 09:27:57 51°9.478 2°35.871 254.9 12 254 19
2005-03-22 09:28:03 51°9.474 2°35.844 255.1 12 254 19.1
2005-03-22 09:28:07 51°9.47 2°35.822 256 12 255 19.2
2005-03-22 09:28:13 51°9.465 2°35.793 255.6 12 254 18.8
2005-03-22 09:28:18 51°9.46 2°35.768 255.2 12 254 18.8
2005-03-22 09:28:22 51°9.456 2°35.745 254.8 12 253 19.3
2005-03-22 09:28:27 51°9.451 2°35.719 255.2 12 254 18.9
2005-03-22 09:28:33 51°9.447 2°35.691 255 12.1 254 18.9
2005-03-22 09:28:37 51°9.443 2°35.671 255.7 12 255 18.9
2005-03-22 09:28:43 51°9.438 2°35.64 255.5 12 254 18.7
2005-03-22 09:28:48 51°9.433 2°35.615 255.4 12 254 19.2
2005-03-22 09:28:53 51°9.428 2°35.59 255.6 11.9 254 18.9
2005-03-22 09:28:57 51°9.425 2°35.569 254.7 12 252 19.6
2005-03-22 09:29:03 51°9.419 2°35.539 255.6 12 252 18.7
2005-03-22 09:29:08 51°9.414 2°35.513 254.8 12 252 18.9
2005-03-22 09:29:12 51°9.41 2°35.49 254.9 12 255 19.4
2005-03-22 09:29:17 51°9.407 2°35.467 255.6 12.1 255 19.3
2005-03-22 09:29:22 51°9.401 2°35.439 255.7 12 254 18.8
2005-03-22 09:29:27 51°9.397 2°35.413 255.7 12 254 19.6
2005-03-22 09:29:31 51°9.393 2°35.393 255.9 12 254 19.1
2005-03-22 09:29:37 51°9.388 2°35.366 256.2 12 255 18.8
2005-03-22 09:29:42 51°9.384 2°35.34 255.4 11.9 254 19.6
2005-03-22 09:29:47 51°9.379 2°35.312 255.2 12 254 19.1
2005-03-22 09:29:51 51°9.375 2°35.292 255.1 12.1 254 19
2005-03-22 09:29:57 51°9.369 2°35.261 255.3 12.1 255 19.6
2005-03-22 09:30:03 51°9.365 2°35.232 255.2 12.1 254 19.6
2005-03-22 09:30:07 51°9.361 2°35.209 255.9 12.1 256 19.6
2005-03-22 09:30:13 51°9.356 2°35.181 256.1 12.1 256 19.5
2005-03-22 09:30:17 51°9.352 2°35.157 255.3 12 254 18.9
2005-03-22 09:30:23 51°9.347 2°35.13 255.1 12 253 19.8
2005-03-22 09:30:27 51°9.343 2°35.107 254.7 12 253 19.2
2005-03-22 09:30:32 51°9.338 2°35.082 254.9 12 253 19.4
2005-03-22 09:30:37 51°9.333 2°35.055 254.9 12 253 19.1
2005-03-22 09:30:42 51°9.328 2°35.031 255.2 12 254 19.1
2005-03-22 09:30:47 51°9.324 2°35.008 254.7 12 254 18.9
2005-03-22 09:30:53 51°9.319 2°34.978 254.8 12 254 19.3
2005-03-22 09:30:57 51°9.315 2°34.957 255 12 254 18.9
2005-03-22 09:31:01 51°9.31 2°34.934 255.2 12.1 253 19.4
2005-03-22 09:31:07 51°9.306 2°34.906 254.7 12.1 255 18.9
2005-03-22 09:31:11 51°9.301 2°34.883 255.1 12.1 255 18.8
2005-03-22 09:31:17 51°9.297 2°34.854 255.1 12.1 255 19.3
2005-03-22 09:31:22 51°9.292 2°34.826 255.8 12.1 255 19
2005-03-22 09:31:27 51°9.288 2°34.8 256.1 12.1 255 19.3
2005-03-22 09:31:32 51°9.283 2°34.775 255.7 12.1 255 19.4
2005-03-22 09:31:37 51°9.279 2°34.752 255.8 12.1 255 19.7
2005-03-22 09:31:43 51°9.274 2°34.721 255 12.1 254 19.8
2005-03-22 09:31:47 51°9.27 2°34.698 255.1 12.1 254 19.9
2005-03-22 09:31:52 51°9.265 2°34.672 254.9 12.1 254 20.2
2005-03-22 09:31:58 51°9.26 2°34.643 255.1 12.1 254 20.2
2005-03-22 09:32:03 51°9.256 2°34.618 255.4 12.1 254 20.3
2005-03-22 09:32:07 51°9.252 2°34.595 255.4 12.1 255 20.4
2005-03-22 09:32:12 51°9.247 2°34.569 255.5 12.1 255 20.4
2005-03-22 09:32:18 51°9.242 2°34.541 255.7 12.1 255 20
2005-03-22 09:32:23 51°9.238 2°34.515 255.5 12.1 255 18.3
2005-03-22 09:32:27 51°9.234 2°34.493 255.5 12.1 255 16.6
2005-03-22 09:32:32 51°9.23 2°34.467 255.4 12 254 17.7
2005-03-22 09:32:37 51°9.225 2°34.441 255.8 12 254 18.6
2005-03-22 09:32:43 51°9.22 2°34.413 255 12.1 255 18.1
2005-03-22 09:32:47 51°9.216 2°34.391 255.2 12.1 255 17.8
2005-03-22 09:32:53 51°9.211 2°34.363 255.2 12.1 255 18.2
2005-03-22 09:32:57 51°9.207 2°34.342 255.3 12 254 18.7
2005-03-22 09:33:02 51°9.203 2°34.314 255 12.1 253 19.1
2005-03-22 09:33:08 51°9.198 2°34.285 255.7 12.1 253 19.3
2005-03-22 09:33:11 51°9.195 2°34.27 255.4 12 255 19.4
2005-03-22 09:33:17 51°9.189 2°34.239 255.3 12 254 19.5
2005-03-22 09:33:22 51°9.185 2°34.212 255.1 12 254 19.5
2005-03-22 09:33:27 51°9.18 2°34.186 255.4 12 254 19.7
2005-03-22 09:33:33 51°9.175 2°34.158 255 12 254 20
2005-03-22 09:33:37 51°9.171 2°34.138 255.3 12 254 19.7
2005-03-22 09:33:43 51°9.166 2°34.108 255.3 12 254 19.8
2005-03-22 09:33:47 51°9.161 2°34.085 254.7 12 254 20
2005-03-22 09:33:52 51°9.156 2°34.059 253.6 12 252 20
2005-03-22 09:33:58 51°9.15 2°34.031 253.2 12 252 20.2
2005-03-22 09:34:02 51°9.146 2°34.011 253.2 12 252 20.1
2005-03-22 09:34:07 51°9.141 2°33.986 253.2 12 252 20
2005-03-22 09:34:13 51°9.135 2°33.956 252.9 12.1 252 19.9
2005-03-22 09:34:17 51°9.13 2°33.933 252.9 12.1 252 20.1
2005-03-22 09:34:23 51°9.124 2°33.906 252.7 12 252 20.3
2005-03-22 09:34:27 51°9.12 2°33.884 252.6 12.1 252 20.3
2005-03-22 09:34:32 51°9.115 2°33.858 253 12.1 252 20.4
2005-03-22 09:34:37 51°9.11 2°33.831 253.6 12 253 20.3
2005-03-22 09:34:42 51°9.105 2°33.806 253.3 12.1 253 20.2
2005-03-22 09:34:47 51°9.099 2°33.781 253.2 12.1 252 20.2
2005-03-22 09:34:52 51°9.095 2°33.759 253.3 12.1 252 20.1
2005-03-22 09:34:56 51°9.09 2°33.736 252.9 12.1 252 20.2
2005-03-22 09:35:03 51°9.083 2°33.701 252.8 12.1 252 20.1
2005-03-22 09:35:07 51°9.079 2°33.681 253 12.1 252 20.2
2005-03-22 09:35:13 51°9.073 2°33.653 253.2 12.1 252 20.2
2005-03-22 09:35:17 51°9.069 2°33.633 253.3 12.1 253 20.2
2005-03-22 09:35:22 51°9.063 2°33.605 253.3 12 252 20.2